createdAt,value
2022-11-13T00:02:01.431Z,3.30
2022-11-13T00:04:51.476Z,3.30
2022-11-13T00:07:40.061Z,3.30
2022-11-13T00:10:28.855Z,3.30
2022-11-13T00:13:17.693Z,3.30
2022-11-13T00:16:08.462Z,3.30
2022-11-13T00:18:57.157Z,3.30
2022-11-13T00:21:47.205Z,3.30
2022-11-13T00:24:35.838Z,3.40
2022-11-13T00:27:24.527Z,3.40
2022-11-13T00:30:19.053Z,3.40
2022-11-13T00:33:08.167Z,3.40
2022-11-13T00:36:03.546Z,3.40
2022-11-13T00:38:54.138Z,3.50
2022-11-13T00:41:42.736Z,3.50
2022-11-13T00:44:31.699Z,3.50
2022-11-13T00:47:20.272Z,3.60
2022-11-13T00:50:09.385Z,3.70
2022-11-13T00:52:57.976Z,3.70
2022-11-13T00:55:48.267Z,3.80
2022-11-13T00:58:38.197Z,3.70
2022-11-13T01:01:26.919Z,3.60
2022-11-13T01:04:15.566Z,3.70
2022-11-13T01:07:04.168Z,3.60
2022-11-13T01:09:53.049Z,3.50
2022-11-13T01:12:43.056Z,3.60
2022-11-13T01:15:31.863Z,3.60
2022-11-13T01:18:20.481Z,3.60
2022-11-13T01:21:11.079Z,3.60
2022-11-13T01:23:59.673Z,3.60
2022-11-13T01:26:48.443Z,3.70
2022-11-13T01:29:39.064Z,3.70
2022-11-13T01:32:27.722Z,3.70
2022-11-13T01:35:16.451Z,3.70
2022-11-13T01:38:05.069Z,3.80
2022-11-13T01:40:53.718Z,3.80
2022-11-13T01:43:42.350Z,3.80
2022-11-13T01:46:34.648Z,3.90
2022-11-13T01:49:30.203Z,3.90
2022-11-13T01:52:21.341Z,4.10
2022-11-13T01:55:13.679Z,4.30
2022-11-13T01:58:03.831Z,4.50
2022-11-13T02:00:52.476Z,4.40
2022-11-13T02:03:42.647Z,4.40
2022-11-13T02:06:35.689Z,4.40
2022-11-13T02:09:27.880Z,4.40
2022-11-13T02:12:20.019Z,4.30
2022-11-13T02:15:09.799Z,4.20
2022-11-13T02:18:00.405Z,4.20
2022-11-13T02:20:57.489Z,4.10
2022-11-13T02:23:52.058Z,4.10
2022-11-13T02:26:42.601Z,4.00
2022-11-13T02:29:31.255Z,4.00
2022-11-13T02:32:19.812Z,4.00
2022-11-13T02:35:08.944Z,4.10
2022-11-13T02:38:00.275Z,4.20
2022-11-13T02:40:48.866Z,4.30
2022-11-13T02:43:38.846Z,4.40
2022-11-13T02:46:27.462Z,4.40
2022-11-13T02:49:16.094Z,4.50
2022-11-13T02:52:04.798Z,4.70
2022-11-13T02:54:53.493Z,4.80
2022-11-13T02:57:42.084Z,4.90
2022-11-13T03:00:32.242Z,5.30
2022-11-13T03:03:41.081Z,5.60
2022-11-13T03:06:29.467Z,5.80
2022-11-13T03:09:18.191Z,6.00
2022-11-13T03:12:08.115Z,6.10
2022-11-13T03:14:56.720Z,6.10
2022-11-13T03:17:46.602Z,6.10
2022-11-13T03:20:37.454Z,6.00
2022-11-13T03:23:26.067Z,5.90
2022-11-13T03:26:16.951Z,5.80
2022-11-13T03:29:05.580Z,5.60
2022-11-13T03:31:54.216Z,5.40
2022-11-13T03:34:44.297Z,5.20
2022-11-13T03:37:33.129Z,5.00
2022-11-13T03:40:21.755Z,4.90
2022-11-13T03:43:10.462Z,4.90
2022-11-13T03:45:59.140Z,4.90
2022-11-13T03:48:47.741Z,4.80
2022-11-13T03:51:37.750Z,4.80
2022-11-13T03:54:26.427Z,4.70
2022-11-13T03:57:15.084Z,4.60
2022-11-13T04:00:04.060Z,4.70
2022-11-13T04:02:52.692Z,4.80
2022-11-13T04:05:41.455Z,5.10
2022-11-13T04:08:31.540Z,5.30
2022-11-13T04:11:20.195Z,5.40
2022-11-13T04:14:08.849Z,5.50
2022-11-13T04:16:57.488Z,5.30
2022-11-13T04:19:46.081Z,5.20
2022-11-13T04:22:34.724Z,5.10
2022-11-13T04:25:24.864Z,5.00
2022-11-13T04:28:13.481Z,5.10
2022-11-13T04:31:02.056Z,5.20
2022-11-13T04:33:50.692Z,5.20
2022-11-13T04:36:39.300Z,5.20
2022-11-13T04:39:27.963Z,5.20
2022-11-13T04:42:35.271Z,5.10
2022-11-13T04:45:27.551Z,5.10
2022-11-13T04:48:16.174Z,5.20
2022-11-13T04:51:04.959Z,5.20
2022-11-13T04:53:53.604Z,5.20
2022-11-13T04:56:42.303Z,5.20
2022-11-13T04:59:32.344Z,5.30
2022-11-13T05:02:21.100Z,5.30
2022-11-13T05:05:10.345Z,5.30
2022-11-13T05:07:58.895Z,5.40
2022-11-13T05:10:47.507Z,5.40
2022-11-13T05:13:37.825Z,5.50
2022-11-13T05:16:27.886Z,5.50
2022-11-13T05:19:16.693Z,5.50
2022-11-13T05:22:05.636Z,5.60
2022-11-13T05:24:54.187Z,5.60
2022-11-13T05:27:42.758Z,5.50
2022-11-13T05:30:31.352Z,5.60
2022-11-13T05:33:21.388Z,5.70
2022-11-13T05:36:11.884Z,5.70
2022-11-13T05:39:00.586Z,5.70
2022-11-13T05:41:49.196Z,5.60
2022-11-13T05:44:37.803Z,5.50
2022-11-13T05:47:26.360Z,5.50
2022-11-13T05:50:16.834Z,5.40
2022-11-13T05:53:05.393Z,5.40
2022-11-13T05:55:54.088Z,5.40
2022-11-13T05:58:44.687Z,5.50
2022-11-13T06:01:35.162Z,5.40
2022-11-13T06:04:23.829Z,5.30
2022-11-13T06:07:13.844Z,5.10
2022-11-13T06:10:02.506Z,4.90
2022-11-13T06:12:51.118Z,4.70
2022-11-13T06:15:39.718Z,4.60
2022-11-13T06:18:28.527Z,4.50
2022-11-13T06:21:20.537Z,4.50
2022-11-13T06:24:13.917Z,4.50
2022-11-13T06:27:02.504Z,4.60
2022-11-13T06:29:51.186Z,4.60
2022-11-13T06:32:39.767Z,4.70
2022-11-13T06:35:28.704Z,4.70
2022-11-13T06:38:17.270Z,4.80
2022-11-13T06:41:08.415Z,4.80
2022-11-13T06:44:02.066Z,4.80
2022-11-13T06:46:51.425Z,4.90
2022-11-13T06:49:40.024Z,4.90
2022-11-13T06:52:28.590Z,4.90
2022-11-13T06:55:17.291Z,5.00
2022-11-13T06:58:07.370Z,5.10
2022-11-13T07:00:56.081Z,5.10
2022-11-13T07:03:45.347Z,5.20
2022-11-13T07:06:39.086Z,5.30
2022-11-13T07:09:29.081Z,5.40
2022-11-13T07:12:17.631Z,5.50
2022-11-13T07:15:08.496Z,5.60
2022-11-13T07:17:57.049Z,5.70
2022-11-13T07:20:45.933Z,5.90
2022-11-13T07:23:34.953Z,6.10
2022-11-13T07:26:24.264Z,6.30
2022-11-13T07:29:13.511Z,6.40
2022-11-13T07:32:03.614Z,6.50
2022-11-13T07:34:52.375Z,6.60
2022-11-13T07:37:41.100Z,6.70
2022-11-13T07:40:29.749Z,6.90
2022-11-13T07:43:18.428Z,7.00
2022-11-13T07:46:07.644Z,7.20
2022-11-13T07:48:57.602Z,7.40
2022-11-13T07:51:46.236Z,7.60
2022-11-13T07:54:35.040Z,7.90
2022-11-13T07:57:24.088Z,8.20
2022-11-13T08:00:13.698Z,8.70
2022-11-13T08:03:07.525Z,9.20
2022-11-13T08:06:01.804Z,9.50
2022-11-13T08:08:50.623Z,9.70
2022-11-13T08:11:39.292Z,9.90
2022-11-13T08:14:27.871Z,10.10
2022-11-13T08:17:16.433Z,10.40
2022-11-13T08:20:06.117Z,11.10
2022-11-13T08:22:58.777Z,11.80
2022-11-13T08:25:47.408Z,12.40
2022-11-13T08:28:36.559Z,12.90
2022-11-13T08:31:25.157Z,13.00
2022-11-13T08:34:13.775Z,12.90
2022-11-13T08:37:02.397Z,13.00
2022-11-13T08:39:52.375Z,12.70
2022-11-13T08:42:41.071Z,12.40
2022-11-13T08:45:30.160Z,12.20
2022-11-13T08:48:19.333Z,12.40
2022-11-13T08:51:07.914Z,12.50
2022-11-13T08:53:56.516Z,12.40
2022-11-13T08:56:52.960Z,12.20
2022-11-13T08:59:44.282Z,11.90
2022-11-13T09:02:32.970Z,11.50
2022-11-13T09:05:21.565Z,11.20
2022-11-13T09:08:10.743Z,11.10
2022-11-13T09:11:03.092Z,11.00
2022-11-13T09:13:53.604Z,11.10
2022-11-13T09:16:43.192Z,11.10
2022-11-13T09:19:31.752Z,11.00
2022-11-13T09:22:20.365Z,10.90
2022-11-13T09:25:10.033Z,10.80
2022-11-13T09:28:00.291Z,10.70
2022-11-13T09:30:50.349Z,10.50
2022-11-13T09:33:38.899Z,10.30
2022-11-13T09:36:27.473Z,10.20
2022-11-13T09:39:17.049Z,10.20
2022-11-13T09:42:14.101Z,10.30
2022-11-13T09:45:08.164Z,10.30
2022-11-13T09:48:08.350Z,10.50
2022-11-13T09:50:58.780Z,10.80
2022-11-13T09:53:48.535Z,11.00
2022-11-13T09:56:41.662Z,11.00
2022-11-13T09:59:36.801Z,10.90
2022-11-13T10:02:35.048Z,11.00
2022-11-13T10:05:33.087Z,11.20
2022-11-13T10:08:28.632Z,11.40
2022-11-13T10:11:25.045Z,12.30
2022-11-13T10:14:18.910Z,13.00
2022-11-13T10:17:16.452Z,13.60
2022-11-13T10:20:11.075Z,13.30
2022-11-13T10:23:09.581Z,12.90
2022-11-13T10:26:03.043Z,12.70
2022-11-13T10:29:00.229Z,12.50
2022-11-13T10:31:51.795Z,12.30
2022-11-13T10:34:41.289Z,12.30
2022-11-13T10:37:47.283Z,12.40
2022-11-13T10:40:39.174Z,12.70
2022-11-13T10:43:28.692Z,12.90
2022-11-13T10:46:21.738Z,13.40
2022-11-13T10:49:14.891Z,13.50
2022-11-13T10:52:08.524Z,13.50
2022-11-13T10:55:17.294Z,13.30
2022-11-13T10:58:14.723Z,13.20
2022-11-13T11:01:03.344Z,13.10
2022-11-13T11:03:52.720Z,13.20
2022-11-13T11:07:19.079Z,13.40
2022-11-13T11:09:53.115Z,13.40
2022-11-13T11:12:42.987Z,13.50
2022-11-13T11:15:40.854Z,13.40
2022-11-13T11:18:35.474Z,13.20
2022-11-13T11:21:28.006Z,13.00
2022-11-13T11:24:20.880Z,12.90
2022-11-13T11:27:16.078Z,12.50
2022-11-13T11:30:07.232Z,12.40
2022-11-13T11:33:06.019Z,12.40
2022-11-13T11:36:02.044Z,12.50
2022-11-13T11:39:01.018Z,12.40
2022-11-13T11:41:57.430Z,12.50
2022-11-13T11:45:02.232Z,12.70
2022-11-13T11:47:51.415Z,13.00
2022-11-13T11:50:47.287Z,13.40
2022-11-13T11:53:53.693Z,13.90
2022-11-13T11:56:46.697Z,14.10
2022-11-13T12:00:10.119Z,13.80
2022-11-13T12:03:28.039Z,13.80
2022-11-13T12:06:25.391Z,13.90
2022-11-13T12:09:22.975Z,14.00
2022-11-13T12:12:21.821Z,14.10
2022-11-13T12:15:15.188Z,14.10
2022-11-13T12:18:16.216Z,13.80
2022-11-13T12:21:22.445Z,13.60
2022-11-13T12:24:37.886Z,13.20
2022-11-13T12:27:32.679Z,13.00
2022-11-13T12:30:24.018Z,13.00
2022-11-13T12:33:24.734Z,13.40
2022-11-13T12:36:14.787Z,14.20
2022-11-13T12:39:24.359Z,15.00
2022-11-13T12:42:22.074Z,15.50
2022-11-13T12:45:19.771Z,15.90
2022-11-13T12:48:11.663Z,16.60
2022-11-13T12:51:01.633Z,17.40
2022-11-13T12:53:52.119Z,18.00
2022-11-13T12:56:42.148Z,18.40
2022-11-13T12:59:34.852Z,19.00
2022-11-13T13:02:33.724Z,19.10
2022-11-13T13:05:30.536Z,19.40
2022-11-13T13:08:42.491Z,20.10
2022-11-13T13:11:41.519Z,20.20
2022-11-13T13:14:46.611Z,19.60
2022-11-13T13:17:35.379Z,19.40
2022-11-13T13:20:33.516Z,19.80
2022-11-13T13:23:29.193Z,19.30
2022-11-13T13:26:21.125Z,17.80
2022-11-13T13:29:19.068Z,16.10
2022-11-13T13:32:21.219Z,15.00
2022-11-13T13:35:16.022Z,14.10
2022-11-13T13:38:14.816Z,13.60
2022-11-13T13:41:16.713Z,13.20
2022-11-13T13:44:28.333Z,12.90
2022-11-13T13:47:25.220Z,12.70
2022-11-13T13:50:16.518Z,12.50
2022-11-13T13:53:05.160Z,12.30
2022-11-13T13:55:56.500Z,12.20
2022-11-13T13:58:45.080Z,12.00
2022-11-13T14:01:34.970Z,11.80
2022-11-13T14:04:26.295Z,11.60
2022-11-13T14:07:24.566Z,11.50
2022-11-13T14:10:18.428Z,11.40
2022-11-13T14:13:07.027Z,11.20
2022-11-13T14:16:03.436Z,11.10
2022-11-13T14:18:52.030Z,11.10
2022-11-13T14:21:42.511Z,11.00
2022-11-13T14:24:34.738Z,10.90
2022-11-13T14:27:27.578Z,10.90
2022-11-13T14:30:25.645Z,10.90
2022-11-13T14:33:24.228Z,10.80
2022-11-13T14:36:13.734Z,10.70
2022-11-13T14:39:04.168Z,10.70
2022-11-13T14:41:56.891Z,10.60
2022-11-13T14:44:45.510Z,10.50
2022-11-13T14:47:37.627Z,10.40
2022-11-13T14:50:28.828Z,10.40
2022-11-13T14:53:28.331Z,10.30
2022-11-13T14:56:18.498Z,10.20
2022-11-13T14:59:16.863Z,10.10
2022-11-13T15:02:08.097Z,10.10
2022-11-13T15:04:56.630Z,10.00
2022-11-13T15:07:46.859Z,10.10
2022-11-13T15:10:35.500Z,10.00
2022-11-13T15:13:25.841Z,9.90
2022-11-13T15:16:16.853Z,9.90
2022-11-13T15:19:08.927Z,9.80
2022-11-13T15:22:26.742Z,9.80
2022-11-13T15:25:13.581Z,9.70
2022-11-13T15:28:02.177Z,9.70
2022-11-13T15:30:52.856Z,9.60
2022-11-13T15:33:41.492Z,9.50
2022-11-13T15:36:30.158Z,9.40
2022-11-13T15:39:23.659Z,9.30
2022-11-13T15:42:16.920Z,9.30
2022-11-13T15:45:07.198Z,9.20
2022-11-13T15:47:57.240Z,9.10
2022-11-13T15:50:46.784Z,9.00
2022-11-13T15:53:35.445Z,9.00
2022-11-13T15:56:25.085Z,8.90
2022-11-13T15:59:15.445Z,8.80
2022-11-13T16:02:04.069Z,8.80
2022-11-13T16:04:57.190Z,8.80
2022-11-13T16:07:45.958Z,8.80
2022-11-13T16:10:34.545Z,8.80
2022-11-13T16:13:23.110Z,8.70
2022-11-13T16:16:17.365Z,8.60
2022-11-13T16:19:13.050Z,8.50
2022-11-13T16:22:03.074Z,8.40
2022-11-13T16:24:51.684Z,8.30
2022-11-13T16:27:40.395Z,8.10
2022-11-13T16:30:31.441Z,8.10
2022-11-13T16:33:20.030Z,8.20
2022-11-13T16:36:14.898Z,8.30
2022-11-13T16:39:05.563Z,8.30
2022-11-13T16:41:54.147Z,8.40
2022-11-13T16:44:42.970Z,8.40
2022-11-13T16:47:32.767Z,8.40
2022-11-13T16:50:24.195Z,8.30
2022-11-13T16:53:12.936Z,8.20
2022-11-13T16:56:03.472Z,8.10
2022-11-13T16:58:52.086Z,8.00
2022-11-13T17:01:40.755Z,8.00
2022-11-13T17:04:29.373Z,8.10
2022-11-13T17:07:18.072Z,8.10
2022-11-13T17:13:17.299Z,8.10
2022-11-13T17:16:06.297Z,8.10
2022-11-13T17:18:55.852Z,8.00
2022-11-13T17:21:44.772Z,8.00
2022-11-13T17:24:33.403Z,8.00
2022-11-13T17:27:22.092Z,7.90
2022-11-13T17:30:13.394Z,7.90
2022-11-13T17:33:01.992Z,7.80
2022-11-13T17:35:55.992Z,7.70
2022-11-13T17:38:44.640Z,7.70
2022-11-13T17:41:34.176Z,7.70
2022-11-13T17:44:22.928Z,7.70
2022-11-13T17:47:12.944Z,7.60
2022-11-13T17:50:07.150Z,7.60
2022-11-13T17:52:57.402Z,7.70
2022-11-13T17:55:54.348Z,7.70
2022-11-13T17:58:44.313Z,7.80
2022-11-13T18:01:33.809Z,7.90
2022-11-13T18:04:23.981Z,8.00
2022-11-13T18:07:12.688Z,8.20
2022-11-13T18:10:01.271Z,8.30
2022-11-13T18:12:49.918Z,8.50
2022-11-13T18:15:39.503Z,8.50
2022-11-13T18:18:28.170Z,8.40
2022-11-13T18:21:23.228Z,8.20
2022-11-13T18:24:15.222Z,8.10
2022-11-13T18:27:06.013Z,8.00
2022-11-13T18:29:54.821Z,7.80
2022-11-13T18:32:43.412Z,7.80
2022-11-13T18:35:32.528Z,7.80
2022-11-13T18:38:22.558Z,7.70
2022-11-13T18:41:12.545Z,7.70
2022-11-13T18:44:01.188Z,7.70
2022-11-13T18:46:49.773Z,7.60
2022-11-13T18:49:38.399Z,7.50
2022-11-13T18:52:27.028Z,7.50
2022-11-13T18:55:17.153Z,7.70
2022-11-13T18:58:05.748Z,7.90
2022-11-13T19:00:54.352Z,7.90
2022-11-13T19:04:08.142Z,8.10
2022-11-13T19:06:55.112Z,8.10
2022-11-13T19:09:46.094Z,8.10
2022-11-13T19:12:36.053Z,8.00
2022-11-13T19:15:24.693Z,8.00
2022-11-13T19:18:13.304Z,8.00
2022-11-13T19:21:06.229Z,8.00
2022-11-13T19:23:55.263Z,8.00
2022-11-13T19:26:44.182Z,8.00
2022-11-13T19:29:34.187Z,7.90
2022-11-13T19:32:22.765Z,7.70
2022-11-13T19:35:11.358Z,7.60
2022-11-13T19:38:01.022Z,7.40
2022-11-13T19:40:51.742Z,7.30
2022-11-13T19:43:41.591Z,7.20
2022-11-13T19:46:34.060Z,7.20
2022-11-13T19:49:22.735Z,7.20
2022-11-13T19:52:11.318Z,7.20
2022-11-13T19:54:59.958Z,7.10
2022-11-13T19:57:50.178Z,7.10
2022-11-13T20:00:38.836Z,7.30
2022-11-13T20:03:28.868Z,7.30
2022-11-13T20:06:18.892Z,7.30
2022-11-13T20:09:07.821Z,7.20
2022-11-13T20:11:56.400Z,7.30
2022-11-13T20:14:45.018Z,7.30
2022-11-13T20:17:33.545Z,7.30
2022-11-13T20:20:23.552Z,7.20
2022-11-13T20:23:12.221Z,7.10
2022-11-13T20:26:02.457Z,7.00
2022-11-13T20:28:51.100Z,6.90
2022-11-13T20:31:39.682Z,6.90
2022-11-13T20:34:28.398Z,6.80
2022-11-13T20:37:18.372Z,6.70
2022-11-13T20:40:08.124Z,6.60
2022-11-13T20:42:56.731Z,6.50
2022-11-13T20:45:45.334Z,6.40
2022-11-13T20:48:34.361Z,6.30
2022-11-13T20:51:25.118Z,6.30
2022-11-13T20:54:15.133Z,6.20
2022-11-13T20:57:03.802Z,6.10
2022-11-13T20:59:52.598Z,6.10
2022-11-13T21:02:41.173Z,6.00
2022-11-13T21:05:29.992Z,6.00
2022-11-13T21:08:18.557Z,6.00
2022-11-13T21:11:09.365Z,6.00
2022-11-13T21:13:59.399Z,5.90
2022-11-13T21:16:48.010Z,6.00
2022-11-13T21:19:36.578Z,6.00
2022-11-13T21:22:25.161Z,5.90
2022-11-13T21:25:13.873Z,5.90
2022-11-13T21:28:04.343Z,5.90
2022-11-13T21:30:52.890Z,5.80
2022-11-13T21:33:43.091Z,5.70
2022-11-13T21:36:31.898Z,5.60
2022-11-13T21:39:20.481Z,5.60
2022-11-13T21:42:09.139Z,5.60
2022-11-13T21:44:59.114Z,5.50
2022-11-13T21:47:47.712Z,5.50
2022-11-13T21:50:36.298Z,5.50
2022-11-13T21:53:24.891Z,5.50
2022-11-13T21:56:15.781Z,5.50
2022-11-13T21:59:05.529Z,5.50
2022-11-13T22:01:55.549Z,5.50
2022-11-13T22:04:44.220Z,5.50
2022-11-13T22:07:32.792Z,5.40
2022-11-13T22:10:21.388Z,5.40
2022-11-13T22:13:10.062Z,5.50
2022-11-13T22:15:58.666Z,5.40
2022-11-13T22:18:48.929Z,5.40
2022-11-13T22:21:38.076Z,5.40
2022-11-13T22:24:26.739Z,5.40
2022-11-13T22:27:15.356Z,5.40
2022-11-13T22:30:04.519Z,5.50
2022-11-13T22:32:53.059Z,5.40
2022-11-13T22:35:43.046Z,5.30
2022-11-13T22:38:32.197Z,5.30
2022-11-13T22:41:23.974Z,5.30
2022-11-13T22:44:15.109Z,5.20
2022-11-13T22:47:03.685Z,5.20
2022-11-13T22:49:52.264Z,5.30
2022-11-13T22:52:42.302Z,5.40
2022-11-13T22:55:30.892Z,5.30
2022-11-13T22:58:19.551Z,5.50
2022-11-13T23:01:09.741Z,5.80
2022-11-13T23:04:01.060Z,6.00
2022-11-13T23:06:49.738Z,6.10
2022-11-13T23:09:39.725Z,6.20
2022-11-13T23:12:28.457Z,6.30
2022-11-13T23:15:17.181Z,6.60
2022-11-13T23:18:09.701Z,6.70
2022-11-13T23:20:58.749Z,6.60
2022-11-13T23:23:47.564Z,6.70
2022-11-13T23:26:37.646Z,6.60
2022-11-13T23:29:26.291Z,6.40
2022-11-13T23:32:14.889Z,6.20
2022-11-13T23:35:03.450Z,6.10
2022-11-13T23:37:52.058Z,6.00
2022-11-13T23:40:40.980Z,6.00
2022-11-13T23:44:02.169Z,5.90
2022-11-13T23:46:40.632Z,5.90
2022-11-13T23:49:29.171Z,5.80
2022-11-13T23:52:17.849Z,5.70
2022-11-13T23:55:07.092Z,5.60
2022-11-13T23:58:00.659Z,5.60
